Time;durP1;ratioP1;P1;durP2;ratioP2;P2;SDS_P1;SDS_P2;PMS_P1;PMS_P2;Temp;Humidity;BMP_temperature;BMP_pressure;BME280_temperature;BME280_humidity;BME280_pressure;Samples;Min_cycle;Max_cycle;Signal;HPM_P1;HPM_P2
2022/11/02 00:01:26;;;;;;;3.50;3.30;;;11.60;1.00;;;;;;4994132;28;20458;-81
2022/11/02 00:03:54;;;;;;;4.13;3.83;;;11.70;1.00;;;;;;4991191;28;20548;-80
2022/11/02 00:06:24;;;;;;;4.43;4.07;;;11.60;99.90;;;;;;4987060;28;20467;-80
2022/11/02 00:08:52;;;;;;;4.70;3.90;;;11.70;40.90;;;;;;4989940;28;21419;-81
2022/11/02 00:11:20;;;;;;;3.90;3.47;;;11.80;99.90;;;;;;4989504;28;20464;-81
2022/11/02 00:13:48;;;;;;;3.67;3.37;;;11.90;99.90;;;;;;4989435;28;20461;-81
2022/11/02 00:16:19;;;;;;;5.10;4.70;;;12.00;99.90;;;;;;4988107;28;20463;-81
2022/11/02 00:18:51;;;;;;;4.57;4.17;;;12.00;96.30;;;;;;4988476;28;20565;-82
2022/11/02 00:21:20;;;;;;;4.90;3.70;;;12.20;83.60;;;;;;4987559;28;20463;-81
2022/11/02 00:23:50;;;;;;;4.70;3.47;;;12.20;30.60;;;;;;4989468;28;20547;-82
2022/11/02 00:26:19;;;;;;;3.90;3.70;;;12.10;7.70;;;;;;4988465;28;20486;-81
2022/11/02 00:28:47;;;;;;;3.30;2.97;;;12.10;45.90;;;;;;4994611;28;20493;-82
2022/11/02 00:31:15;;;;;;;5.60;3.30;;;12.20;16.20;;;;;;4991889;28;20997;-81
2022/11/02 00:33:43;;;;;;;3.67;3.40;;;12.20;50.60;;;;;;4994085;28;20950;-81
2022/11/02 00:36:11;;;;;;;6.60;3.63;;;12.20;36.50;;;;;;4997744;28;20527;-81
2022/11/02 00:38:40;;;;;;;3.40;3.20;;;12.20;25.60;;;;;;4995427;28;20504;-80
2022/11/02 00:41:09;;;;;;;4.37;3.60;;;12.30;29.10;;;;;;4999692;28;20900;-81
2022/11/02 00:43:37;;;;;;;4.00;3.80;;;12.30;10.10;;;;;;4993333;28;20473;-80
2022/11/02 00:46:05;;;;;;;3.37;3.17;;;12.30;10.30;;;;;;4994925;28;20465;-81
2022/11/02 00:48:33;;;;;;;3.57;3.33;;;12.30;1.00;;;;;;4997147;28;20577;-81
2022/11/02 00:51:01;;;;;;;4.50;4.23;;;12.30;1.00;;;;;;4995990;28;20637;-81
2022/11/02 00:53:30;;;;;;;4.70;3.50;;;12.20;42.60;;;;;;4994986;28;20512;-82
2022/11/02 00:55:58;;;;;;;3.60;3.40;;;12.30;20.20;;;;;;4991377;28;20992;-82
2022/11/02 00:58:27;;;;;;;3.97;3.63;;;12.40;1.00;;;;;;4990939;28;20473;-81
2022/11/02 01:00:56;;;;;;;3.70;3.50;;;12.40;1.00;;;;;;4992793;28;20501;-82
2022/11/02 01:03:24;;;;;;;4.53;3.53;;;12.30;1.00;;;;;;4997330;28;20458;-82
2022/11/02 01:05:52;;;;;;;4.80;4.40;;;12.30;1.00;;;;;;4996691;28;20465;-81
2022/11/02 01:08:20;;;;;;;3.57;3.37;;;12.30;1.00;;;;;;4992261;28;20482;-80
2022/11/02 01:10:48;;;;;;;3.90;3.60;;;12.30;1.00;;;;;;4996451;28;20465;-81
2022/11/02 01:13:17;;;;;;;5.10;4.60;;;12.40;1.00;;;;;;4990198;28;20560;-81
2022/11/02 01:15:46;;;;;;;4.33;3.93;;;12.40;1.00;;;;;;4991783;28;20946;-80
2022/11/02 01:18:14;;;;;;;3.70;3.50;;;12.40;1.00;;;;;;4991091;28;20882;-81
2022/11/02 01:20:42;;;;;;;4.37;3.97;;;12.30;1.00;;;;;;4989452;28;20459;-81
2022/11/02 01:23:10;;;;;;;4.60;4.30;;;12.30;1.00;;;;;;4995305;28;20540;-81
2022/11/02 01:25:44;;;;;;;4.70;3.60;;;12.40;1.00;;;;;;4992665;28;20437;-82
2022/11/02 01:28:12;;;;;;;7.33;3.77;;;12.50;1.00;;;;;;4985271;28;20525;-81
2022/11/02 01:30:40;;;;;;;3.93;3.63;;;12.40;1.00;;;;;;4990306;28;20476;-81
2022/11/02 01:33:10;;;;;;;4.10;3.73;;;12.30;4.70;;;;;;4990176;28;20878;-82
2022/11/02 01:35:38;;;;;;;4.00;3.80;;;12.20;1.00;;;;;;4990283;28;20516;-83
2022/11/02 01:38:06;;;;;;;7.13;4.00;;;12.10;92.10;;;;;;4989994;28;20530;-82
2022/11/02 01:40:35;;;;;;;3.90;3.70;;;12.20;99.90;;;;;;4992218;28;20458;-81
2022/11/02 01:43:19;;;;;;;6.53;3.93;;;12.10;99.90;;;;;;4992741;28;20457;-81
2022/11/02 01:45:48;;;;;;;3.83;3.63;;;12.10;99.90;;;;;;4994137;28;20447;-82
2022/11/02 01:48:20;;;;;;;3.90;3.70;;;12.10;99.90;;;;;;4990739;28;20985;-81
2022/11/02 01:50:49;;;;;;;5.50;4.93;;;12.30;99.90;;;;;;4992705;28;20472;-81
2022/11/02 01:53:17;;;;;;;3.90;3.60;;;12.40;30.80;;;;;;4992990;28;20460;-82
2022/11/02 01:55:46;;;;;;;4.30;4.00;;;12.40;60.30;;;;;;4992834;28;20592;-81
2022/11/02 01:58:14;;;;;;;4.07;3.87;;;12.30;77.70;;;;;;4989740;28;20507;-81
2022/11/02 02:00:42;;;;;;;4.70;4.30;;;12.30;99.90;;;;;;4992186;28;20533;-81
2022/11/02 02:03:15;;;;;;;4.17;3.87;;;12.30;99.90;;;;;;4989774;28;20449;-83
2022/11/02 02:05:49;;;;;;;3.90;3.60;;;12.30;99.90;;;;;;4991411;28;20445;-82
2022/11/02 02:08:20;;;;;;;4.47;4.07;;;12.20;99.90;;;;;;4994203;28;20485;-81
2022/11/02 02:10:48;;;;;;;4.13;3.83;;;12.20;99.90;;;;;;4990386;28;20528;-81
2022/11/02 02:13:18;;;;;;;3.50;3.30;;;12.30;99.90;;;;;;4991595;28;20787;-80
2022/11/02 02:15:54;;;;;;;4.30;3.90;;;12.20;99.90;;;;;;4989876;28;20501;-80
2022/11/02 02:18:27;;;;;;;4.30;4.00;;;12.10;99.90;;;;;;4990074;28;20469;-80
2022/11/02 02:21:19;;;;;;;4.37;4.10;;;12.10;99.90;;;;;;4991964;28;20476;-80
2022/11/02 02:24:18;;;;;;;4.20;4.00;;;12.20;99.90;;;;;;4994876;28;21291;-81
2022/11/02 02:27:05;;;;;;;4.87;4.10;;;12.20;99.90;;;;;;4997970;28;20470;-82
2022/11/02 02:30:04;;;;;;;4.40;4.07;;;12.20;99.90;;;;;;4995200;28;20492;-80
2022/11/02 02:32:39;;;;;;;3.60;3.40;;;12.20;99.90;;;;;;4993828;28;20575;-83
2022/11/02 02:35:15;;;;;;;4.00;3.70;;;12.30;99.90;;;;;;4998549;28;20547;-81
2022/11/02 02:37:49;;;;;;;3.80;3.40;;;12.30;99.90;;;;;;4997734;28;20962;-81
2022/11/02 02:40:23;;;;;;;4.30;3.90;;;12.40;99.90;;;;;;4994121;28;20459;-80
2022/11/02 02:42:54;;;;;;;4.03;3.73;;;12.40;99.90;;;;;;5002138;28;20461;-81
2022/11/02 02:45:31;;;;;;;3.93;3.63;;;12.40;99.90;;;;;;4998504;28;23170;-79
2022/11/02 02:48:06;;;;;;;3.90;3.63;;;12.40;99.90;;;;;;5000823;28;20477;-82
2022/11/02 02:50:39;;;;;;;4.40;4.10;;;12.40;99.90;;;;;;4998306;28;20453;-81
2022/11/02 02:53:08;;;;;;;4.07;3.87;;;12.40;99.90;;;;;;4993114;28;20449;-81
2022/11/02 02:55:41;;;;;;;4.17;3.80;;;12.30;99.90;;;;;;4993301;28;21018;-79
2022/11/02 02:58:16;;;;;;;4.50;4.20;;;12.30;99.90;;;;;;4990845;28;20489;-80
2022/11/02 03:00:46;;;;;;;4.23;3.70;;;12.20;99.90;;;;;;4998071;28;20895;-80
2022/11/02 03:03:18;;;;;;;4.00;3.70;;;12.30;99.90;;;;;;4995246;28;20453;-80
2022/11/02 03:06:01;;;;;;;4.27;3.67;;;12.20;99.90;;;;;;4991732;28;20472;-81
2022/11/02 03:08:31;;;;;;;4.77;4.53;;;12.30;97.70;;;;;;4992581;28;20484;-80
2022/11/02 03:11:05;;;;;;;5.60;4.00;;;12.40;99.70;;;;;;4999768;28;20817;-80
2022/11/02 03:13:45;;;;;;;4.40;4.10;;;12.20;99.90;;;;;;4998449;28;20461;-82
2022/11/02 03:16:31;;;;;;;4.30;3.90;;;12.10;99.90;;;;;;4997639;28;20545;-82
2022/11/02 03:19:09;;;;;;;3.70;3.50;;;12.20;99.90;;;;;;4998921;28;20502;-82
2022/11/02 03:21:41;;;;;;;3.50;3.20;;;12.20;99.90;;;;;;4994957;28;20525;-81
2022/11/02 03:24:14;;;;;;;4.50;4.30;;;12.20;99.90;;;;;;4998736;28;20497;-83
2022/11/02 03:26:49;;;;;;;4.10;3.70;;;12.00;99.90;;;;;;4994278;28;21055;-81
2022/11/02 03:29:21;;;;;;;5.70;4.57;;;12.20;99.90;;;;;;4997513;28;20560;-82
2022/11/02 03:31:56;;;;;;;4.70;3.87;;;12.20;99.90;;;;;;4998921;28;20488;-82
2022/11/02 03:34:28;;;;;;;4.03;3.83;;;12.40;55.00;;;;;;4992817;28;20546;-81
2022/11/02 03:37:02;;;;;;;4.23;3.43;;;12.30;19.40;;;;;;4992982;28;20484;-82
2022/11/02 03:39:35;;;;;;;4.33;4.03;;;12.30;6.90;;;;;;4990029;28;20520;-82
2022/11/02 03:42:04;;;;;;;4.30;3.70;;;12.50;1.00;;;;;;4994226;28;20450;-82
2022/11/02 03:44:38;;;;;;;6.03;4.23;;;12.40;1.00;;;;;;4996145;28;20468;-83
2022/11/02 03:47:12;;;;;;;6.13;4.13;;;12.30;1.00;;;;;;4996540;28;20465;-83
2022/11/02 03:49:42;;;;;;;4.17;3.87;;;12.30;1.00;;;;;;5001138;28;20484;-82
2022/11/02 03:52:15;;;;;;;3.70;3.50;;;12.30;1.00;;;;;;4996703;28;20451;-82
2022/11/02 03:54:49;;;;;;;3.10;3.00;;;12.50;1.00;;;;;;5001131;28;20832;-83
2022/11/02 03:57:21;;;;;;;4.53;3.83;;;12.30;1.00;;;;;;4997337;28;20998;-83
2022/11/02 03:59:49;;;;;;;10.47;4.00;;;12.20;1.00;;;;;;4994609;28;20490;-83
2022/11/02 04:02:19;;;;;;;4.63;3.67;;;12.20;1.00;;;;;;4995610;28;20463;-83
2022/11/02 04:04:49;;;;;;;4.53;3.63;;;12.20;1.00;;;;;;4990860;28;20872;-83
2022/11/02 04:07:22;;;;;;;3.50;3.33;;;12.20;1.00;;;;;;4997140;28;20443;-83
2022/11/02 04:09:50;;;;;;;4.23;3.40;;;12.20;1.00;;;;;;4992857;28;20585;-83
2022/11/02 04:15:04;;;;;;;3.47;3.27;;;12.40;1.00;;;;;;4992273;28;20550;-83
2022/11/02 04:20:19;;;;;;;3.50;3.20;;;12.40;1.00;;;;;;4994087;28;20476;-82
2022/11/02 04:25:33;;;;;;;3.63;3.43;;;12.40;1.00;;;;;;4990822;28;20465;-81
2022/11/02 04:28:08;;;;;;;3.60;3.30;;;12.20;1.00;;;;;;4995094;28;20596;-83
2022/11/02 04:30:36;;;;;;;4.67;3.33;;;12.10;1.00;;;;;;4991619;28;20839;-83
2022/11/02 04:35:51;;;;;;;4.63;3.63;;;12.20;1.00;;;;;;4994968;28;20462;-83
2022/11/02 04:43:51;;;;;;;4.47;4.07;;;12.20;1.00;;;;;;4993742;28;20453;-81
2022/11/02 04:46:20;;;;;;;4.20;3.73;;;12.10;1.00;;;;;;4994912;28;20794;-82
2022/11/02 04:48:50;;;;;;;3.90;3.60;;;12.10;1.00;;;;;;5011331;28;20473;-82
2022/11/02 04:51:20;;;;;;;4.60;4.03;;;12.20;1.00;;;;;;4996226;28;20459;-82
2022/11/02 04:53:48;;;;;;;3.60;3.30;;;12.20;1.00;;;;;;4987716;28;21077;-82
2022/11/02 04:56:16;;;;;;;3.30;3.00;;;12.10;1.00;;;;;;4987845;28;20454;-83
2022/11/02 04:58:49;;;;;;;3.67;3.50;;;11.90;1.00;;;;;;4997420;28;20473;-83
2022/11/02 05:01:18;;;;;;;3.80;3.60;;;12.00;1.00;;;;;;4990671;28;20530;-83
2022/11/02 05:03:47;;;;;;;3.67;3.47;;;12.10;1.00;;;;;;4991430;28;20470;-82
2022/11/02 05:06:17;;;;;;;5.20;3.30;;;12.00;1.00;;;;;;4994242;28;20761;-82
2022/11/02 05:08:45;;;;;;;4.43;4.13;;;12.00;1.00;;;;;;4992631;28;20514;-83
2022/11/02 05:11:14;;;;;;;3.70;3.40;;;11.80;1.00;;;;;;4993149;28;20481;-81
2022/11/02 05:13:43;;;;;;;3.80;3.47;;;11.80;1.00;;;;;;4994782;28;21031;-82
2022/11/02 05:16:13;;;;;;;7.77;3.57;;;11.80;1.00;;;;;;4995865;28;20468;-82
2022/11/02 05:18:41;;;;;;;3.23;2.93;;;11.70;1.00;;;;;;4993768;28;20719;-82
2022/11/02 05:21:11;;;;;;;3.90;3.60;;;11.80;1.00;;;;;;4993364;28;20536;-82
2022/11/02 05:23:40;;;;;;;4.13;3.83;;;11.80;1.00;;;;;;4987943;28;20459;-81
2022/11/02 05:26:12;;;;;;;4.17;3.10;;;11.80;1.00;;;;;;4992588;28;20499;-83
2022/11/02 05:28:40;;;;;;;3.70;3.50;;;11.90;1.00;;;;;;4995328;28;20903;-84
2022/11/02 05:31:08;;;;;;;5.60;3.50;;;11.90;1.00;;;;;;4994827;28;20493;-83
2022/11/02 05:33:37;;;;;;;4.22;3.58;;;11.80;1.00;;;;;;4980632;28;20817;-82
2022/11/02 05:36:06;;;;;;;4.73;3.43;;;11.90;1.00;;;;;;4990907;28;20296;-82
2022/11/02 05:38:34;;;;;;;4.13;3.83;;;12.00;1.00;;;;;;4983572;28;20531;-83
2022/11/02 05:41:04;;;;;;;4.20;4.00;;;12.20;1.00;;;;;;4993504;28;20459;-81
2022/11/02 05:43:32;;;;;;;3.80;3.40;;;12.30;1.00;;;;;;4997083;28;20508;-83
2022/11/02 05:46:01;;;;;;;4.00;3.53;;;12.40;1.00;;;;;;4997796;28;21261;-83
2022/11/02 05:48:32;;;;;;;3.80;3.53;;;12.30;1.00;;;;;;4996832;28;20490;-81
2022/11/02 05:51:01;;;;;;;4.30;3.27;;;12.30;1.00;;;;;;5000807;28;20469;-83
2022/11/02 05:53:32;;;;;;;3.47;2.90;;;12.30;1.00;;;;;;4995109;28;20465;-82
2022/11/02 05:56:01;;;;;;;3.90;3.40;;;12.10;1.00;;;;;;4999452;28;20535;-82
2022/11/02 05:58:31;;;;;;;4.93;3.47;;;12.10;1.00;;;;;;4998014;28;20512;-83
2022/11/02 06:01:00;;;;;;;3.77;3.40;;;12.10;1.00;;;;;;4999390;28;20489;-83
2022/11/02 06:03:28;;;;;;;3.73;3.30;;;12.00;1.00;;;;;;5001651;28;20465;-82
2022/11/02 06:05:57;;;;;;;3.80;3.60;;;11.90;1.00;;;;;;4998569;28;20560;-84
2022/11/02 06:08:25;;;;;;;5.33;4.07;;;11.90;1.00;;;;;;4997552;28;20495;-82
2022/11/02 06:10:54;;;;;;;5.23;3.20;;;11.80;1.00;;;;;;5010818;28;20503;-80
2022/11/02 06:13:22;;;;;;;5.00;3.63;;;11.90;1.00;;;;;;4996252;28;20899;-82
2022/11/02 06:15:51;;;;;;;3.50;3.20;;;11.90;1.00;;;;;;4992780;28;20971;-84
2022/11/02 06:18:19;;;;;;;3.40;3.20;;;11.90;1.00;;;;;;4995333;28;21039;-81
2022/11/02 06:20:47;;;;;;;4.23;4.00;;;11.90;1.00;;;;;;4994981;28;20556;-83
2022/11/02 06:23:17;;;;;;;7.10;4.17;;;11.90;1.00;;;;;;4989954;28;20454;-84
2022/11/02 06:25:51;;;;;;;3.83;3.63;;;11.90;1.00;;;;;;4997796;28;20497;-84
2022/11/02 06:28:19;;;;;;;3.90;3.57;;;11.90;1.00;;;;;;4995994;28;20483;-84
2022/11/02 06:30:48;;;;;;;7.10;3.97;;;11.90;1.00;;;;;;4993960;28;20522;-84
2022/11/02 06:33:18;;;;;;;4.23;3.83;;;12.20;1.00;;;;;;4995790;28;20457;-83
2022/11/02 06:35:46;;;;;;;4.57;4.23;;;12.20;1.00;;;;;;4995605;28;20541;-84
2022/11/02 06:38:15;;;;;;;3.93;3.63;;;12.20;1.00;;;;;;5001522;28;20564;-83
2022/11/02 06:40:43;;;;;;;6.17;3.90;;;12.30;1.00;;;;;;4995924;28;20513;-84
2022/11/02 06:43:11;;;;;;;6.07;4.03;;;12.50;1.00;;;;;;4994652;28;20512;-83
2022/11/02 06:45:45;;;;;;;4.30;3.90;;;12.60;1.00;;;;;;4991845;28;20839;-84
2022/11/02 06:48:13;;;;;;;4.30;4.00;;;12.70;1.00;;;;;;4995110;28;20489;-84
2022/11/02 06:50:43;;;;;;;6.07;4.57;;;12.80;1.00;;;;;;4994509;28;20485;-84
2022/11/02 06:53:11;;;;;;;4.70;4.30;;;12.80;1.00;;;;;;4997262;28;20473;-84
2022/11/02 06:55:39;;;;;;;5.80;4.30;;;12.80;1.00;;;;;;4998720;28;20457;-83
2022/11/02 06:58:07;;;;;;;4.97;4.30;;;12.80;1.00;;;;;;4997090;28;20552;-84
2022/11/02 07:00:36;;;;;;;4.73;4.30;;;12.70;1.00;;;;;;4997018;28;20475;-82
2022/11/02 07:03:07;;;;;;;5.00;4.30;;;12.80;1.00;;;;;;4991714;28;20464;-82
2022/11/02 07:05:36;;;;;;;4.17;3.90;;;12.90;1.00;;;;;;4997172;28;20521;-80
2022/11/02 07:08:05;;;;;;;4.37;4.00;;;12.90;1.00;;;;;;4993595;28;20501;-80
2022/11/02 07:10:35;;;;;;;7.03;4.23;;;13.00;1.00;;;;;;4998581;28;20465;-80
2022/11/02 07:13:03;;;;;;;4.33;3.93;;;13.00;1.00;;;;;;5001135;28;20489;-81
2022/11/02 07:15:32;;;;;;;4.67;4.37;;;13.00;1.00;;;;;;4997105;28;20502;-79
2022/11/02 07:18:00;;;;;;;6.40;4.37;;;13.10;1.00;;;;;;4999055;28;20505;-80
2022/11/02 07:20:29;;;;;;;4.40;4.10;;;13.00;1.00;;;;;;4998864;28;20465;-80
2022/11/02 07:22:59;;;;;;;5.03;4.27;;;13.10;1.00;;;;;;5001571;28;20505;-80
2022/11/02 07:25:30;;;;;;;4.30;3.93;;;13.10;1.00;;;;;;5006912;28;20453;-81
2022/11/02 07:27:59;;;;;;;4.00;3.70;;;13.30;1.00;;;;;;5000684;28;20503;-80
2022/11/02 07:30:28;;;;;;;4.33;4.07;;;13.20;1.00;;;;;;5005832;28;20456;-80
2022/11/02 07:32:56;;;;;;;4.37;4.07;;;13.20;1.00;;;;;;5004144;28;20488;-79
2022/11/02 07:35:24;;;;;;;3.87;3.63;;;13.30;1.00;;;;;;5004108;28;20575;-79
2022/11/02 07:37:57;;;;;;;6.70;4.03;;;13.30;1.00;;;;;;5003869;28;20506;-81
2022/11/02 07:40:26;;;;;;;4.83;4.43;;;13.40;1.00;;;;;;5002312;28;20492;-80
2022/11/02 07:42:56;;;;;;;3.73;3.37;;;13.50;1.00;;;;;;5003565;28;20529;-80
2022/11/02 07:45:24;;;;;;;4.30;3.90;;;13.50;1.00;;;;;;5004241;28;20557;-80
2022/11/02 07:47:52;;;;;;;8.60;5.03;;;13.50;1.00;;;;;;5001343;28;20480;-81
2022/11/02 07:50:23;;;;;;;4.60;4.20;;;13.50;1.00;;;;;;5001828;28;20481;-79
2022/11/02 07:52:52;;;;;;;5.80;4.70;;;13.60;1.00;;;;;;4999375;28;20488;-80
2022/11/02 07:55:22;;;;;;;9.03;5.13;;;13.80;1.00;;;;;;4999745;28;20463;-79
2022/11/02 07:57:54;;;;;;;5.30;5.00;;;13.80;1.00;;;;;;4996149;28;20469;-80
2022/11/02 08:00:24;;;;;;;5.80;5.00;;;14.10;1.00;;;;;;5001320;28;20481;-80
2022/11/02 08:02:55;;;;;;;4.63;4.20;;;14.20;1.00;;;;;;5001684;28;21028;-79
2022/11/02 08:05:23;;;;;;;5.47;4.93;;;14.30;1.00;;;;;;5002092;28;20459;-80
2022/11/02 08:07:59;;;;;;;6.70;5.00;;;14.40;1.00;;;;;;4997648;28;20465;-80
2022/11/02 08:10:28;;;;;;;5.40;4.90;;;14.50;1.00;;;;;;4998406;28;20518;-79
2022/11/02 08:12:59;;;;;;;5.23;4.93;;;14.80;1.00;;;;;;4997626;28;21051;-80
2022/11/02 08:15:29;;;;;;;5.13;4.73;;;15.00;1.00;;;;;;4995911;28;20504;-80
2022/11/02 08:18:01;;;;;;;5.53;5.13;;;15.00;1.00;;;;;;4993256;28;20525;-80
2022/11/02 08:20:30;;;;;;;4.87;4.57;;;15.10;1.00;;;;;;4997981;28;20960;-79
2022/11/02 08:22:58;;;;;;;5.90;5.40;;;15.10;1.00;;;;;;4997781;28;20539;-79
2022/11/02 08:25:27;;;;;;;6.07;5.00;;;15.00;1.00;;;;;;4997978;28;21214;-79
2022/11/02 08:27:57;;;;;;;6.13;5.63;;;15.10;1.00;;;;;;4997100;28;21015;-80
2022/11/02 08:30:26;;;;;;;5.97;5.23;;;15.30;1.00;;;;;;5001189;28;20863;-80
2022/11/02 08:32:55;;;;;;;5.23;5.00;;;15.40;1.00;;;;;;4996815;28;20555;-79
2022/11/02 08:35:24;;;;;;;5.67;5.13;;;15.30;1.00;;;;;;4996111;28;20496;-80
2022/11/02 08:37:56;;;;;;;5.20;5.00;;;15.20;1.00;;;;;;4997580;28;21089;-79
2022/11/02 08:40:24;;;;;;;5.33;5.13;;;15.30;1.00;;;;;;4995004;28;20461;-79
2022/11/02 08:42:56;;;;;;;5.43;5.07;;;15.30;1.00;;;;;;4997117;28;20450;-79
2022/11/02 08:45:25;;;;;;;4.97;4.70;;;15.40;1.00;;;;;;4997086;28;20511;-80
2022/11/02 08:47:55;;;;;;;5.30;4.90;;;15.40;1.00;;;;;;4993931;28;21335;-80
2022/11/02 08:50:24;;;;;;;5.77;5.37;;;15.40;1.00;;;;;;4998025;28;20451;-80
2022/11/02 08:52:53;;;;;;;6.60;5.97;;;15.40;1.00;;;;;;4994230;28;20512;-80
2022/11/02 08:55:21;;;;;;;6.10;5.60;;;15.60;1.00;;;;;;4997316;28;20453;-79
2022/11/02 08:57:51;;;;;;;5.40;5.00;;;15.60;1.00;;;;;;4993190;28;20457;-80
2022/11/02 09:00:21;;;;;;;4.90;4.70;;;15.80;1.00;;;;;;4988068;28;20449;-80
2022/11/02 09:03:04;;;;;;;5.53;5.10;;;15.90;1.00;;;;;;4988275;28;20452;-80
2022/11/02 09:05:33;;;;;;;4.83;4.53;;;16.00;1.00;;;;;;4993640;28;20448;-80
2022/11/02 09:08:03;;;;;;;4.90;4.57;;;16.00;1.00;;;;;;4985967;28;20489;-80
2022/11/02 09:10:34;;;;;;;4.83;4.57;;;15.90;1.00;;;;;;4967897;28;21116;-80
2022/11/02 09:13:04;;;;;;;8.97;4.73;;;16.00;1.00;;;;;;4990606;28;20483;-80
2022/11/02 09:15:36;;;;;;;4.43;4.13;;;16.00;1.00;;;;;;4996233;28;20977;-80
2022/11/02 09:18:06;;;;;;;4.47;3.90;;;16.00;99.90;;;;;;4995335;28;20903;-80
2022/11/02 09:20:35;;;;;;;4.90;3.90;;;15.90;99.90;;;;;;4994334;28;20465;-81
2022/11/02 09:23:04;;;;;;;7.33;3.90;;;15.70;99.90;;;;;;4999304;28;20515;-80
2022/11/02 09:25:32;;;;;;;4.30;4.00;;;15.60;99.90;;;;;;4998602;28;20548;-80
2022/11/02 09:28:00;;;;;;;4.50;4.10;;;15.50;99.90;;;;;;4994813;28;21368;-80
2022/11/02 09:30:29;;;;;;;4.47;4.17;;;15.50;99.90;;;;;;4991842;28;20463;-80
2022/11/02 09:32:59;;;;;;;4.43;4.13;;;15.40;99.90;;;;;;4995499;28;20500;-80
2022/11/02 09:35:31;;;;;;;3.90;3.80;;;15.40;99.90;;;;;;4991661;28;20600;-80
2022/11/02 09:37:59;;;;;;;4.20;3.80;;;15.50;99.90;;;;;;4988306;28;20523;-80
2022/11/02 09:40:31;;;;;;;4.40;4.00;;;15.50;99.90;;;;;;4990419;28;20478;-80
2022/11/02 09:43:09;;;;;;;3.90;3.70;;;15.50;99.90;;;;;;4990572;28;21006;-80
2022/11/02 09:45:50;;;;;;;5.93;4.20;;;15.50;99.90;;;;;;4992812;28;20466;-79
2022/11/02 09:48:24;;;;;;;5.97;5.20;;;15.40;99.90;;;;;;4992634;28;20512;-80
2022/11/02 09:51:03;;;;;;;4.80;4.03;;;15.50;99.90;;;;;;5016018;28;20454;-79
2022/11/02 09:53:50;;;;;;;4.50;4.10;;;15.50;99.90;;;;;;5000549;28;20481;-80
2022/11/02 09:56:19;;;;;;;4.90;4.43;;;15.50;99.90;;;;;;4998185;28;20485;-80
2022/11/02 09:58:59;;;;;;;4.07;3.60;;;15.40;99.90;;;;;;4993231;28;20470;-80
2022/11/02 10:01:47;;;;;;;6.30;3.60;;;15.40;99.90;;;;;;4990954;28;20582;-80
2022/11/02 10:04:49;;;;;;;4.97;3.50;;;15.40;99.90;;;;;;4990043;28;20461;-80
2022/11/02 10:07:29;;;;;;;5.27;4.70;;;15.40;99.90;;;;;;4987820;28;21040;-80
2022/11/02 10:10:03;;;;;;;3.70;3.40;;;15.50;99.90;;;;;;4994253;28;21049;-79
2022/11/02 10:12:40;;;;;;;4.30;3.93;;;15.50;99.90;;;;;;4988306;28;20625;-79
2022/11/02 10:15:12;;;;;;;6.10;4.30;;;15.60;99.90;;;;;;4993570;28;20456;-80
2022/11/02 10:17:42;;;;;;;3.90;3.60;;;15.70;99.90;;;;;;4988665;28;21016;-80
2022/11/02 10:20:19;;;;;;;5.43;3.93;;;15.70;99.90;;;;;;4992162;28;20462;-79
2022/11/02 10:22:49;;;;;;;4.83;3.60;;;15.80;99.90;;;;;;4992413;28;20461;-80
2022/11/02 10:25:17;;;;;;;4.87;3.67;;;15.80;99.90;;;;;;4989693;28;21037;-79
2022/11/02 10:27:50;;;;;;;4.40;4.00;;;15.90;99.90;;;;;;4991564;28;20559;-80
2022/11/02 10:30:20;;;;;;;6.00;3.97;;;16.10;99.90;;;;;;4992543;28;20463;-80
2022/11/02 10:32:52;;;;;;;3.33;3.13;;;16.20;99.90;;;;;;4991429;28;20510;-80
2022/11/02 10:35:27;;;;;;;4.53;4.10;;;16.30;99.90;;;;;;4997313;28;20491;-79
2022/11/02 10:38:29;;;;;;;4.20;3.90;;;16.30;99.90;;;;;;4998931;28;20465;-80
2022/11/02 10:41:13;;;;;;;6.33;5.00;;;16.40;99.90;;;;;;4998046;28;20455;-80
2022/11/02 10:43:55;;;;;;;4.57;4.13;;;16.40;99.90;;;;;;4994647;28;20486;-80
2022/11/02 10:46:37;;;;;;;4.40;4.00;;;16.30;99.90;;;;;;4992439;28;20461;-80
2022/11/02 10:49:12;;;;;;;6.37;3.60;;;16.20;99.90;;;;;;4992390;28;20485;-80
2022/11/02 10:51:41;;;;;;;6.83;4.03;;;16.00;99.90;;;;;;4992796;28;20661;-80
2022/11/02 10:54:14;;;;;;;5.70;4.80;;;16.00;99.90;;;;;;4992625;28;20543;-80
2022/11/02 10:56:49;;;;;;;5.57;3.40;;;15.90;99.90;;;;;;4996176;28;20473;-80
2022/11/02 10:59:19;;;;;;;3.40;3.20;;;16.00;99.90;;;;;;4990669;28;20505;-81
2022/11/02 11:02:05;;;;;;;6.50;3.87;;;16.00;99.90;;;;;;4991984;28;20446;-80
2022/11/02 11:04:34;;;;;;;3.80;3.47;;;16.00;99.90;;;;;;4993291;28;20823;-80
2022/11/02 11:07:06;;;;;;;6.37;4.83;;;16.20;99.90;;;;;;4993740;28;20511;-80
2022/11/02 11:09:39;;;;;;;5.13;3.80;;;16.40;99.90;;;;;;4991621;28;20511;-80
2022/11/02 11:12:19;;;;;;;3.83;3.60;;;16.40;99.90;;;;;;4990886;28;20539;-80
2022/11/02 11:14:51;;;;;;;4.27;3.40;;;16.40;99.90;;;;;;4992738;28;20477;-80
2022/11/02 11:17:40;;;;;;;3.80;3.50;;;16.40;99.90;;;;;;4994349;28;21273;-80
2022/11/02 11:20:34;;;;;;;4.70;3.33;;;16.40;99.90;;;;;;4990524;28;20468;-80
2022/11/02 11:23:17;;;;;;;5.97;3.77;;;16.40;99.90;;;;;;4991140;28;20957;-80
2022/11/02 11:25:59;;;;;;;4.10;3.80;;;16.50;99.90;;;;;;4992354;28;20447;-80
2022/11/02 11:28:31;;;;;;;4.47;3.57;;;16.20;99.90;;;;;;4987935;28;20486;-80
2022/11/02 11:31:12;;;;;;;3.63;3.20;;;16.20;99.90;;;;;;4992937;28;20453;-80
2022/11/02 11:33:50;;;;;;;3.40;3.20;;;16.40;99.90;;;;;;4989935;28;20475;-80
2022/11/02 11:36:25;;;;;;;4.83;4.43;;;16.50;99.90;;;;;;4991506;28;20497;-79
2022/11/02 11:39:00;;;;;;;4.20;3.23;;;16.60;99.90;;;;;;4990756;28;20587;-80
2022/11/02 11:41:33;;;;;;;4.00;3.60;;;16.60;99.90;;;;;;4990016;28;20487;-80
2022/11/02 11:44:02;;;;;;;5.80;3.63;;;16.90;99.90;;;;;;4993875;28;20535;-80
2022/11/02 11:46:42;;;;;;;5.47;3.80;;;17.00;99.90;;;;;;4993675;28;20881;-80
2022/11/02 11:49:22;;;;;;;5.10;3.63;;;17.10;99.90;;;;;;4998425;28;20842;-79
2022/11/02 11:52:18;;;;;;;3.60;3.40;;;17.20;99.90;;;;;;4996015;28;20472;-80
2022/11/02 11:54:54;;;;;;;3.60;3.30;;;17.30;99.90;;;;;;5000167;28;20565;-79
2022/11/02 11:57:28;;;;;;;3.10;2.83;;;17.20;99.90;;;;;;4996290;28;20459;-80
2022/11/02 11:59:58;;;;;;;3.70;3.50;;;17.30;99.90;;;;;;4992032;28;20475;-80
2022/11/02 12:02:28;;;;;;;3.27;2.80;;;17.40;99.90;;;;;;4995160;28;20761;-79
2022/11/02 12:05:02;;;;;;;3.63;3.30;;;17.50;99.90;;;;;;4994821;28;21007;-79
2022/11/02 12:08:09;;;;;;;6.67;3.47;;;17.50;99.90;;;;;;4990533;28;20531;-80
2022/11/02 12:10:48;;;;;;;3.40;3.10;;;17.80;99.90;;;;;;4981981;28;20568;-80
2022/11/02 12:13:31;;;;;;;4.87;3.07;;;17.90;99.90;;;;;;4995981;28;20579;-80
2022/11/02 12:16:14;;;;;;;4.50;3.10;;;17.50;99.90;;;;;;4988910;28;20458;-80
2022/11/02 12:19:17;;;;;;;5.33;3.43;;;17.30;99.90;;;;;;4999049;28;20511;-80
2022/11/02 12:21:56;;;;;;;3.20;3.00;;;17.10;99.90;;;;;;4997399;28;20563;-80
2022/11/02 12:24:51;;;;;;;2.80;2.60;;;17.10;99.90;;;;;;4991122;28;21154;-80
2022/11/02 12:27:30;;;;;;;3.33;3.03;;;16.80;99.90;;;;;;4993310;28;20513;-80
2022/11/02 12:30:13;;;;;;;3.80;3.00;;;16.90;99.90;;;;;;4994727;28;20527;-79
2022/11/02 12:33:15;;;;;;;3.53;3.20;;;16.80;99.90;;;;;;4996457;28;20808;-80
2022/11/02 12:36:02;;;;;;;4.27;3.33;;;16.70;99.90;;;;;;4999365;28;20448;-80
2022/11/02 12:38:56;;;;;;;4.17;3.33;;;16.60;99.90;;;;;;4994183;28;20542;-79
2022/11/02 12:41:46;;;;;;;3.53;3.13;;;16.60;99.90;;;;;;4993930;28;20512;-80
2022/11/02 12:44:34;;;;;;;4.03;3.07;;;17.00;99.90;;;;;;4997818;28;20892;-80
2022/11/02 12:47:11;;;;;;;4.17;3.03;;;17.10;99.90;;;;;;4994233;28;20558;-79
2022/11/02 12:49:47;;;;;;;5.63;3.23;;;17.10;99.90;;;;;;4994199;28;20494;-80
2022/11/02 12:52:28;;;;;;;4.63;3.23;;;17.20;99.90;;;;;;4995271;28;20465;-80
2022/11/02 12:54:58;;;;;;;6.70;3.53;;;17.40;99.90;;;;;;4994885;28;20480;-80
2022/11/02 12:57:30;;;;;;;2.83;2.73;;;17.60;99.90;;;;;;4992137;28;20802;-79
2022/11/02 13:00:03;;;;;;;3.30;2.50;;;17.60;99.90;;;;;;4994273;28;20475;-80
2022/11/02 13:02:41;;;;;;;4.57;2.63;;;17.80;99.90;;;;;;4991210;28;20533;-79
2022/11/02 13:05:14;;;;;;;3.67;2.47;;;18.00;99.90;;;;;;4991545;28;20543;-80
2022/11/02 13:07:47;;;;;;;3.27;2.93;;;18.10;99.90;;;;;;4997173;28;20488;-80
2022/11/02 13:10:19;;;;;;;3.00;2.80;;;18.10;99.90;;;;;;4994440;28;20578;-79
2022/11/02 13:12:51;;;;;;;3.60;2.70;;;18.10;99.90;;;;;;4991293;28;20489;-79
2022/11/02 13:15:23;;;;;;;3.03;2.77;;;18.00;99.90;;;;;;4992123;28;21075;-80
2022/11/02 13:17:57;;;;;;;4.07;2.80;;;18.10;99.90;;;;;;4991133;28;20461;-79
2022/11/02 13:20:28;;;;;;;3.07;2.87;;;18.20;99.90;;;;;;4991949;28;20463;-80
2022/11/02 13:23:14;;;;;;;3.27;2.90;;;18.30;99.90;;;;;;4998946;28;20457;-81
2022/11/02 13:25:47;;;;;;;3.67;2.40;;;18.30;99.90;;;;;;5001095;28;20448;-80
2022/11/02 13:28:19;;;;;;;3.20;2.53;;;18.40;99.90;;;;;;5000078;28;20524;-80
2022/11/02 13:30:48;;;;;;;3.63;2.87;;;18.50;99.90;;;;;;4998448;28;20536;-80
2022/11/02 13:33:22;;;;;;;4.30;2.67;;;18.50;99.90;;;;;;4997479;28;20997;-80
2022/11/02 13:35:52;;;;;;;4.63;2.57;;;18.40;99.90;;;;;;4996418;28;20488;-80